TimeICT,TemperatureF,Dew PointF,Humidity,Sea Level PressureIn,VisibilityMPH,Wind Direction,Wind SpeedMPH,Gust SpeedMPH,PrecipitationIn,Events,Conditions,WindDirDegrees,DateUTC
12:00 AM,78.8,73.4,83,29.86,1.2,Calm,Calm,-,N/A,,Mist,0,2012-12-18 17:00:00
12:30 AM,77.0,73.4,89,29.86,1.2,Calm,Calm,-,N/A,,Mist,0,2012-12-18 17:30:00
1:00 AM,77.0,73.4,89,29.83,1.2,Calm,Calm,-,N/A,,Mist,0,2012-12-18 18:00:00
1:30 AM,77.0,73.4,89,29.83,1.2,Calm,Calm,-,N/A,,Mist,0,2012-12-18 18:30:00
2:00 AM,77.0,73.4,89,29.83,1.2,Calm,Calm,-,N/A,,Mist,0,2012-12-18 19:00:00
2:30 AM,77.0,73.4,89,29.83,1.2,NE,3.5,-,N/A,,Mist,40,2012-12-18 19:30:00
3:00 AM,75.2,71.6,89,29.83,1.2,North,4.6,-,N/A,,Mist,10,2012-12-18 20:00:00
5:00 AM,75.2,71.6,89,29.80,1.2,Calm,Calm,-,N/A,,Mist,0,2012-12-18 22:00:00
5:30 AM,75.2,71.6,89,29.80,1.2,North,3.5,-,N/A,,Mist,10,2012-12-18 22:30:00
6:00 AM,75.2,73.4,94,29.83,1.2,North,3.5,-,N/A,,Mist,10,2012-12-18 23:00:00
6:30 AM,77.0,73.4,89,29.83,1.2,NNE,3.5,-,N/A,,Scattered Clouds,20,2012-12-18 23:30:00
7:00 AM,77.0,73.4,89,29.83,1.2,North,3.5,-,N/A,,Scattered Clouds,10,2012-12-19 00:00:00
7:30 AM,77.0,73.4,89,29.86,1.2,NNE,3.5,-,N/A,,Scattered Clouds,30,2012-12-19 00:30:00
8:00 AM,78.8,73.4,83,29.86,1.9,NNE,3.5,-,N/A,,Scattered Clouds,20,2012-12-19 01:00:00
9:00 AM,84.2,71.6,66,29.86,1.9,NE,3.5,-,N/A,,Scattered Clouds,40,2012-12-19 02:00:00
9:30 AM,86.0,71.6,62,29.86,2.5,NE,4.6,-,N/A,,Haze,40,2012-12-19 02:30:00
10:00 AM,89.6,71.6,55,29.86,2.5,NE,3.5,-,N/A,,Haze,50,2012-12-19 03:00:00
10:30 AM,91.4,69.8,49,29.86,3.7,NNE,4.6,-,N/A,,Mostly Cloudy,30,2012-12-19 03:30:00
11:00 AM,93.2,66.2,41,29.86,4.3,East,4.6,-,N/A,,Mostly Cloudy,90,2012-12-19 04:00:00
11:30 AM,93.2,64.4,38,29.86,5.0,South,5.8,-,N/A,,Mostly Cloudy,170,2012-12-19 04:30:00
12:00 PM,93.2,71.6,49,29.83,5.0,SSE,6.9,-,N/A,,Mostly Cloudy,160,2012-12-19 05:00:00
12:30 PM,91.4,71.6,52,29.83,5.0,SSE,8.1,-,N/A,,Mostly Cloudy,160,2012-12-19 05:30:00
1:00 PM,91.4,66.2,43,29.80,5.0,South,6.9,-,N/A,,Mostly Cloudy,180,2012-12-19 06:00:00
1:30 PM,91.4,64.4,41,29.80,5.0,South,8.1,-,N/A,,Mostly Cloudy,190,2012-12-19 06:30:00
2:00 PM,91.4,66.2,43,29.77,5.6,South,6.9,-,N/A,,Mostly Cloudy,190,2012-12-19 07:00:00
2:30 PM,91.4,68.0,46,29.77,5.6,SSW,6.9,-,N/A,,Mostly Cloudy,200,2012-12-19 07:30:00
3:00 PM,91.4,69.8,49,29.77,5.6,SSW,5.8,-,N/A,,Mostly Cloudy,200,2012-12-19 08:00:00
3:30 PM,91.4,69.8,49,29.74,5.6,SW,4.6,-,N/A,,Mostly Cloudy,230,2012-12-19 08:30:00
4:00 PM,89.6,69.8,52,29.74,5.6,South,4.6,-,N/A,,Mostly Cloudy,180,2012-12-19 09:00:00
4:30 PM,89.6,69.8,52,29.74,5.6,South,4.6,-,N/A,,Mostly Cloudy,190,2012-12-19 09:30:00
5:00 PM,89.6,71.6,55,29.77,5.0,SSW,3.5,-,N/A,,Mostly Cloudy,200,2012-12-19 10:00:00
5:30 PM,87.8,71.6,58,29.77,5.0,SSW,2.3,-,N/A,,Mostly Cloudy,200,2012-12-19 10:30:00
6:00 PM,86.0,71.6,62,29.77,5.0,WSW,3.5,-,N/A,,Mostly Cloudy,240,2012-12-19 11:00:00
6:30 PM,84.2,75.2,74,29.80,5.0,WNW,3.5,-,N/A,,Mostly Cloudy,300,2012-12-19 11:30:00
7:00 PM,82.4,73.4,74,29.80,5.0,Calm,Calm,-,N/A,,Mostly Cloudy,0,2012-12-19 12:00:00
7:30 PM,82.4,73.4,74,29.80,5.0,Calm,Calm,-,N/A,,Scattered Clouds,0,2012-12-19 12:30:00
8:00 PM,80.6,71.6,74,29.80,5.0,Calm,Calm,-,N/A,,Scattered Clouds,0,2012-12-19 13:00:00
9:00 PM,80.6,71.6,74,29.83,5.0,Calm,Calm,-,N/A,,Scattered Clouds,0,2012-12-19 14:00:00
10:00 PM,78.8,71.6,78,29.83,5.0,Calm,Calm,-,N/A,,Scattered Clouds,0,2012-12-19 15:00:00
10:30 PM,78.8,71.6,78,29.83,4.3,Calm,Calm,-,N/A,,Scattered Clouds,0,2012-12-19 15:30:00
11:00 PM,77.0,71.6,83,29.83,4.3,Calm,Calm,-,N/A,,Scattered Clouds,0,2012-12-19 16:00:00
11:30 PM,77.0,71.6,83,29.83,4.3,Calm,Calm,-,N/A,,Scattered Clouds,0,2012-12-19 16:30:00